Miranda, Brazil
Current Conditions -  °F | °C
As of 1:00 PM on Thursday 30 Oct 2014 (Local Time) from SBCG Reporting Station
Broken Clouds Broken Clouds  
Wind Chill: 86°   Ceiling: 4000
Heat Index: 88°   Visibility: 6mi
Dew Point: 66°   Wind: 17mph
Humidity: 51%   Direction: 320°NW
Pressure: 29.83"   Gusts: NA
Location:  20.24°S, 56.38°W
Report Text: SBCG 301600Z 32015KT 9999 BKN040 FEW050TCU 30/19 Q1010
Loading
Personal Weather Stations






























Interactive Weather Map
Tropical Storm Tracking
New forecast layout! Learn more

10-Day Weather Forecast

Advertisements
Track Severe Weather on mobile